createdAt,value
2022-10-09T00:01:34.769Z,7.78
2022-10-09T00:04:05.926Z,4.35
2022-10-09T00:06:35.419Z,7.63
2022-10-09T00:09:04.729Z,7.68
2022-10-09T00:11:34.023Z,6.15
2022-10-09T00:14:04.027Z,6.63
2022-10-09T00:16:38.097Z,8.55
2022-10-09T00:19:06.499Z,8.20
2022-10-09T00:21:35.040Z,7.88
2022-10-09T00:24:05.062Z,8.38
2022-10-09T00:26:33.858Z,3.35
2022-10-09T00:29:04.849Z,6.72
2022-10-09T00:31:32.674Z,4.63
2022-10-09T00:34:02.311Z,6.68
2022-10-09T00:36:30.107Z,4.85
2022-10-09T00:39:00.079Z,5.38
2022-10-09T00:41:30.235Z,6.28
2022-10-09T00:44:00.046Z,3.53
2022-10-09T00:46:40.368Z,3.95
2022-10-09T00:49:27.730Z,6.15
2022-10-09T00:51:58.040Z,5.88
2022-10-09T00:54:28.363Z,4.18
2022-10-09T00:56:56.521Z,4.97
2022-10-09T00:59:25.016Z,4.80
2022-10-09T01:01:54.573Z,5.88
2022-10-09T01:04:22.503Z,6.80
2022-10-09T01:07:02.522Z,4.55
2022-10-09T01:09:40.962Z,3.95
2022-10-09T01:12:16.173Z,5.93
2022-10-09T01:14:52.570Z,5.18
2022-10-09T01:17:29.188Z,6.40
2022-10-09T01:20:23.129Z,5.07
2022-10-09T01:23:08.907Z,7.07
2022-10-09T01:25:43.795Z,3.78
2022-10-09T01:28:17.586Z,3.63
2022-10-09T01:30:45.745Z,6.57
2022-10-09T01:33:13.871Z,8.90
2022-10-09T01:35:45.899Z,9.15
2022-10-09T01:38:13.825Z,5.05
2022-10-09T01:40:41.886Z,4.28
2022-10-09T01:43:09.789Z,8.50
2022-10-09T01:45:41.669Z,9.77
2022-10-09T01:48:12.810Z,10.13
2022-10-09T01:50:44.967Z,5.93
2022-10-09T01:53:16.851Z,7.53
2022-10-09T01:55:50.139Z,8.20
2022-10-09T01:58:23.114Z,6.65
2022-10-09T02:00:55.475Z,5.97
2022-10-09T02:03:24.976Z,7.57
2022-10-09T02:05:54.315Z,12.55
2022-10-09T02:08:25.901Z,9.77
2022-10-09T02:10:58.455Z,7.78
2022-10-09T02:13:26.327Z,7.80
2022-10-09T02:16:01.569Z,7.07
2022-10-09T02:18:38.306Z,7.32
2022-10-09T02:21:12.948Z,8.98
2022-10-09T02:23:42.606Z,11.88
2022-10-09T02:26:11.862Z,9.88
2022-10-09T02:28:45.098Z,7.30
2022-10-09T02:31:19.934Z,8.98
2022-10-09T02:33:48.586Z,10.30
2022-10-09T02:36:16.386Z,8.70
2022-10-09T02:38:44.254Z,8.35
2022-10-09T02:41:12.004Z,10.98
2022-10-09T02:43:39.620Z,8.80
2022-10-09T02:46:07.733Z,10.88
2022-10-09T02:48:37.038Z,10.52
2022-10-09T02:51:05.001Z,12.00
2022-10-09T02:53:32.816Z,8.07
2022-10-09T02:56:00.518Z,11.90
2022-10-09T02:58:31.357Z,7.15
2022-10-09T03:01:01.284Z,10.27
2022-10-09T03:03:29.072Z,12.02
2022-10-09T03:06:09.133Z,8.43
2022-10-09T03:08:37.455Z,11.27
2022-10-09T03:11:05.820Z,10.23
2022-10-09T03:13:33.612Z,10.73
2022-10-09T03:16:08.380Z,9.48
2022-10-09T03:18:36.506Z,9.35
2022-10-09T03:21:08.403Z,12.13
2022-10-09T03:23:36.805Z,9.73
2022-10-09T03:26:07.984Z,9.63
2022-10-09T03:28:37.105Z,11.43
2022-10-09T03:31:05.502Z,12.82
2022-10-09T03:33:33.693Z,12.25
2022-10-09T03:36:01.902Z,10.50
2022-10-09T03:38:35.603Z,12.43
2022-10-09T03:41:04.719Z,10.77
2022-10-09T03:43:35.572Z,16.15
2022-10-09T03:46:05.944Z,8.48
2022-10-09T03:48:33.870Z,9.32
2022-10-09T03:51:01.733Z,9.07
2022-10-09T03:53:31.031Z,9.13
2022-10-09T03:55:58.711Z,9.82
2022-10-09T03:58:26.535Z,9.98
2022-10-09T04:00:55.199Z,10.23
2022-10-09T04:03:23.314Z,12.25
2022-10-09T04:05:51.328Z,10.80
2022-10-09T04:08:19.171Z,10.02
2022-10-09T04:10:48.423Z,11.55
2022-10-09T04:13:16.263Z,9.02
2022-10-09T04:15:51.172Z,9.00
2022-10-09T04:18:19.038Z,10.10
2022-10-09T04:20:52.183Z,9.43
2022-10-09T04:23:20.641Z,8.32
2022-10-09T04:25:50.686Z,14.10
2022-10-09T04:28:18.462Z,11.55
2022-10-09T04:30:46.288Z,8.50
2022-10-09T04:33:14.016Z,9.55
2022-10-09T04:35:43.066Z,8.65
2022-10-09T04:38:10.918Z,9.63
2022-10-09T04:40:40.272Z,9.85
2022-10-09T04:43:09.566Z,9.13
2022-10-09T04:45:41.011Z,10.50
2022-10-09T04:48:08.825Z,9.23
2022-10-09T04:50:39.467Z,10.68
2022-10-09T04:53:07.268Z,11.32
2022-10-09T04:55:39.969Z,13.15
2022-10-09T04:58:09.878Z,8.15
2022-10-09T05:00:41.185Z,10.25
2022-10-09T05:03:09.104Z,7.82
2022-10-09T05:05:36.969Z,10.98
2022-10-09T05:08:05.104Z,8.57
2022-10-09T05:10:33.759Z,9.90
2022-10-09T05:13:01.690Z,13.30
2022-10-09T05:15:30.722Z,8.85
2022-10-09T05:17:58.656Z,9.27
2022-10-09T05:20:26.227Z,13.40
2022-10-09T05:22:53.853Z,10.27
2022-10-09T05:25:21.493Z,7.20
2022-10-09T05:27:49.116Z,8.27
2022-10-09T05:30:16.982Z,10.57
2022-10-09T05:32:46.165Z,10.77
2022-10-09T05:35:13.985Z,7.70
2022-10-09T05:37:41.680Z,10.23
2022-10-09T05:40:10.514Z,9.43
2022-10-09T05:42:38.297Z,8.40
2022-10-09T05:45:06.641Z,9.10
2022-10-09T05:47:34.419Z,8.82
2022-10-09T05:50:03.600Z,9.30
2022-10-09T05:52:31.411Z,7.78
2022-10-09T05:54:59.231Z,13.32
2022-10-09T05:57:29.272Z,16.58
2022-10-09T05:59:57.007Z,11.20
2022-10-09T06:02:25.291Z,9.57
2022-10-09T06:04:53.060Z,11.38
2022-10-09T06:07:22.326Z,13.68
2022-10-09T06:09:50.029Z,14.77
2022-10-09T06:12:18.007Z,12.18
2022-10-09T06:14:46.865Z,11.25
2022-10-09T06:17:17.487Z,8.55
2022-10-09T06:19:45.213Z,11.43
2022-10-09T06:22:13.149Z,12.27
2022-10-09T06:24:42.265Z,8.10
2022-10-09T06:27:10.920Z,11.63
2022-10-09T06:29:38.515Z,9.55
2022-10-09T06:32:06.356Z,10.07
2022-10-09T06:34:34.266Z,13.57
2022-10-09T06:37:01.997Z,7.97
2022-10-09T06:39:29.646Z,12.02
2022-10-09T06:41:58.832Z,8.38
2022-10-09T06:44:26.683Z,11.88
2022-10-09T06:46:54.538Z,13.07
2022-10-09T06:49:22.369Z,12.75
2022-10-09T06:51:50.220Z,12.60
2022-10-09T06:54:18.391Z,9.75
2022-10-09T06:56:46.201Z,10.90
2022-10-09T06:59:16.677Z,13.48
2022-10-09T07:01:44.556Z,10.70
2022-10-09T07:04:14.497Z,10.60
2022-10-09T07:06:44.117Z,10.25
2022-10-09T07:09:13.787Z,10.55
2022-10-09T07:11:44.101Z,9.85
2022-10-09T07:14:13.386Z,12.35
2022-10-09T07:16:44.651Z,8.90
2022-10-09T07:19:13.656Z,8.82
2022-10-09T07:21:43.569Z,10.20
2022-10-09T07:24:12.163Z,8.52
2022-10-09T07:26:42.012Z,9.15
2022-10-09T07:29:12.875Z,8.02
2022-10-09T07:31:42.092Z,8.23
2022-10-09T07:34:09.846Z,9.73
2022-10-09T07:36:37.587Z,11.63
2022-10-09T07:39:05.986Z,7.05
2022-10-09T07:41:33.855Z,7.75
2022-10-09T07:44:02.385Z,7.70
2022-10-09T07:46:33.792Z,12.77
2022-10-09T07:49:03.276Z,9.17
2022-10-09T07:51:32.179Z,9.43
2022-10-09T07:54:01.843Z,7.00
2022-10-09T07:56:31.830Z,6.93
2022-10-09T07:59:01.556Z,9.50
2022-10-09T08:01:31.117Z,13.13
2022-10-09T08:03:59.960Z,5.97
2022-10-09T08:06:29.649Z,8.63
2022-10-09T08:08:59.379Z,6.35
2022-10-09T08:11:30.156Z,6.93
2022-10-09T08:14:00.183Z,7.22
2022-10-09T08:16:28.903Z,8.13
2022-10-09T08:18:58.117Z,8.25
2022-10-09T08:21:26.112Z,6.53
2022-10-09T08:23:57.025Z,6.00
2022-10-09T08:26:28.223Z,8.05
2022-10-09T08:28:58.239Z,7.20
2022-10-09T08:31:28.193Z,7.68
2022-10-09T08:33:57.098Z,5.85
2022-10-09T08:36:27.954Z,11.25
2022-10-09T08:38:57.361Z,6.93
2022-10-09T08:41:38.376Z,4.60
2022-10-09T08:44:11.485Z,8.32
2022-10-09T08:46:50.116Z,9.10
2022-10-09T08:49:26.178Z,5.40
2022-10-09T08:51:57.866Z,6.10
2022-10-09T08:54:34.218Z,6.50
2022-10-09T08:57:05.274Z,5.60
2022-10-09T08:59:33.255Z,4.25
2022-10-09T09:02:09.117Z,8.70
2022-10-09T09:04:54.550Z,4.22
2022-10-09T09:07:30.123Z,6.32
2022-10-09T09:10:06.001Z,4.93
2022-10-09T09:12:44.352Z,5.20
2022-10-09T09:15:27.949Z,2.65
2022-10-09T09:18:07.903Z,5.65
2022-10-09T09:20:44.298Z,6.25
2022-10-09T09:23:16.519Z,4.47
2022-10-09T09:25:46.128Z,4.45
2022-10-09T09:28:20.273Z,5.20
2022-10-09T09:30:52.647Z,4.07
2022-10-09T09:33:25.287Z,5.97
2022-10-09T09:36:00.263Z,5.63
2022-10-09T09:38:28.032Z,4.70
2022-10-09T09:40:57.081Z,4.28
2022-10-09T09:43:26.787Z,4.43
2022-10-09T09:45:56.017Z,3.35
2022-10-09T09:48:32.213Z,4.00
2022-10-09T09:51:23.359Z,4.43
2022-10-09T09:53:51.129Z,4.60
2022-10-09T09:56:22.170Z,5.28
2022-10-09T09:58:57.848Z,3.25
2022-10-09T10:01:27.547Z,3.45
2022-10-09T10:03:57.105Z,4.57
2022-10-09T10:06:29.496Z,4.32
2022-10-09T10:09:02.228Z,3.05
2022-10-09T10:11:32.701Z,3.80
2022-10-09T10:14:10.248Z,4.90
2022-10-09T10:16:41.271Z,3.47
2022-10-09T10:19:21.483Z,6.75
2022-10-09T10:21:50.494Z,4.63
2022-10-09T10:24:23.964Z,3.97
2022-10-09T10:26:56.481Z,4.40
2022-10-09T10:29:28.643Z,4.63
2022-10-09T10:32:03.170Z,4.57
2022-10-09T10:34:34.203Z,6.68
2022-10-09T10:37:08.338Z,6.20
2022-10-09T10:39:42.950Z,6.28
2022-10-09T10:42:19.008Z,3.13
2022-10-09T10:44:53.534Z,2.97
2022-10-09T10:47:25.257Z,3.13
2022-10-09T10:49:53.193Z,3.97
2022-10-09T10:52:30.623Z,5.90
2022-10-09T10:55:05.889Z,4.40
2022-10-09T10:57:42.424Z,5.60
2022-10-09T11:00:12.773Z,3.70
2022-10-09T11:03:14.656Z,5.35
2022-10-09T11:05:54.380Z,3.50
2022-10-09T11:08:36.032Z,4.47
2022-10-09T11:11:09.613Z,6.83
2022-10-09T11:13:49.279Z,4.25
2022-10-09T11:16:34.786Z,4.07
2022-10-09T11:19:17.770Z,3.95
2022-10-09T11:21:56.545Z,4.93
2022-10-09T11:24:44.868Z,4.35
2022-10-09T11:27:17.401Z,4.03
2022-10-09T11:29:53.118Z,6.28
2022-10-09T11:32:24.760Z,3.80
2022-10-09T11:34:59.154Z,5.03
2022-10-09T11:37:30.915Z,5.28
2022-10-09T11:39:58.818Z,4.03
2022-10-09T11:42:27.414Z,5.10
2022-10-09T11:45:07.344Z,4.32
2022-10-09T11:47:41.023Z,6.25
2022-10-09T11:50:19.528Z,6.13
2022-10-09T11:52:54.679Z,4.05
2022-10-09T11:55:34.792Z,3.35
2022-10-09T11:58:24.054Z,2.35
2022-10-09T12:00:55.077Z,9.02
2022-10-09T12:03:31.176Z,7.10
2022-10-09T12:06:08.924Z,8.27
2022-10-09T12:08:37.664Z,4.13
2022-10-09T12:11:23.821Z,7.88
2022-10-09T12:13:54.911Z,4.90
2022-10-09T12:16:44.958Z,3.72
2022-10-09T12:19:19.767Z,4.57
2022-10-09T12:21:51.849Z,5.13
2022-10-09T12:26:55.698Z,4.38
2022-10-09T12:29:28.411Z,3.22
2022-10-09T12:32:05.654Z,6.18
2022-10-09T12:34:42.196Z,5.18
2022-10-09T12:37:17.101Z,3.67
2022-10-09T12:39:45.398Z,5.88
2022-10-09T12:42:19.749Z,3.88
2022-10-09T12:44:49.536Z,4.50
2022-10-09T12:47:23.636Z,4.85
2022-10-09T12:50:04.617Z,3.60
2022-10-09T12:52:33.220Z,8.82
2022-10-09T12:55:02.915Z,4.50
2022-10-09T12:57:31.030Z,3.55
2022-10-09T12:59:59.291Z,8.40
2022-10-09T13:02:28.587Z,4.75
2022-10-09T13:05:02.155Z,5.07
2022-10-09T13:07:32.578Z,4.38
2022-10-09T13:10:11.482Z,3.25
2022-10-09T13:12:40.999Z,4.53
2022-10-09T13:15:30.567Z,2.83
2022-10-09T13:17:59.934Z,3.55
2022-10-09T13:20:30.411Z,2.08
2022-10-09T13:23:00.121Z,6.47
2022-10-09T13:25:30.508Z,4.68
2022-10-09T13:27:58.471Z,4.20
2022-10-09T13:30:28.232Z,2.85
2022-10-09T13:32:56.096Z,3.65
2022-10-09T13:35:28.141Z,2.63
2022-10-09T13:37:57.835Z,3.45
2022-10-09T13:40:25.841Z,5.43
2022-10-09T13:42:58.104Z,3.83
2022-10-09T13:45:26.120Z,4.00
2022-10-09T13:47:53.927Z,2.83
2022-10-09T13:50:21.782Z,4.13
2022-10-09T13:52:50.939Z,4.57
2022-10-09T13:55:19.376Z,2.65
2022-10-09T13:57:47.979Z,2.40
2022-10-09T14:00:16.500Z,2.83
2022-10-09T14:02:44.358Z,2.78
2022-10-09T14:05:12.197Z,2.20
2022-10-09T14:07:40.238Z,1.98
2022-10-09T14:10:11.049Z,5.85
2022-10-09T14:12:38.809Z,2.72
2022-10-09T14:15:07.790Z,4.32
2022-10-09T14:17:35.396Z,1.98
2022-10-09T14:20:03.050Z,3.50
2022-10-09T14:22:30.687Z,3.13
2022-10-09T14:24:58.364Z,2.88
2022-10-09T14:27:29.898Z,3.60
2022-10-09T14:29:57.677Z,4.70
2022-10-09T14:32:31.256Z,6.55
2022-10-09T14:34:59.111Z,4.50
2022-10-09T14:37:41.162Z,6.82
2022-10-09T14:40:10.991Z,7.20
2022-10-09T14:42:41.048Z,3.60
2022-10-09T14:45:10.268Z,6.43
2022-10-09T14:47:37.951Z,5.60
2022-10-09T14:50:06.206Z,3.63
2022-10-09T14:52:33.860Z,5.47
2022-10-09T14:55:01.594Z,2.17
2022-10-09T14:57:34.303Z,5.25
2022-10-09T15:00:05.184Z,3.78
2022-10-09T15:02:32.995Z,3.33
2022-10-09T15:05:00.753Z,3.45
2022-10-09T15:07:28.542Z,3.60
2022-10-09T15:09:57.181Z,6.30
2022-10-09T15:12:25.098Z,1.55
2022-10-09T15:14:55.021Z,2.90
2022-10-09T15:17:30.158Z,2.53
2022-10-09T15:19:59.163Z,1.65
2022-10-09T15:22:28.204Z,2.45
2022-10-09T15:24:59.499Z,4.47
2022-10-09T15:27:27.220Z,3.95
2022-10-09T15:29:54.810Z,1.95
2022-10-09T15:32:24.765Z,4.53
2022-10-09T15:34:52.387Z,1.77
2022-10-09T15:37:19.976Z,1.70
2022-10-09T15:39:47.592Z,2.40
2022-10-09T15:42:15.214Z,2.20
2022-10-09T15:44:43.543Z,3.65
2022-10-09T15:47:16.422Z,3.08
2022-10-09T15:49:49.001Z,3.65
2022-10-09T15:52:18.980Z,3.63
2022-10-09T15:54:46.628Z,5.45
2022-10-09T15:57:14.233Z,3.63
2022-10-09T15:59:42.475Z,3.03
2022-10-09T16:02:10.240Z,4.65
2022-10-09T16:04:38.219Z,3.10
2022-10-09T16:07:07.270Z,7.15
2022-10-09T16:09:35.083Z,4.82
2022-10-09T16:12:03.349Z,2.80
2022-10-09T16:14:31.407Z,5.57
2022-10-09T16:16:59.962Z,4.57
2022-10-09T16:19:27.615Z,4.18
2022-10-09T16:21:55.207Z,8.73
2022-10-09T16:24:24.187Z,4.07
2022-10-09T16:26:51.884Z,4.80
2022-10-09T16:29:19.521Z,2.70
2022-10-09T16:31:47.147Z,4.32
2022-10-09T16:34:14.749Z,5.78
2022-10-09T16:36:42.474Z,3.78
2022-10-09T16:39:10.461Z,5.32
2022-10-09T16:41:41.998Z,5.32
2022-10-09T16:44:13.688Z,5.40
2022-10-09T16:46:41.450Z,4.60
2022-10-09T16:49:17.153Z,4.07
2022-10-09T16:51:46.369Z,5.10
2022-10-09T16:54:13.996Z,4.38
2022-10-09T16:56:42.976Z,6.72
2022-10-09T16:59:13.448Z,4.55
2022-10-09T17:01:45.235Z,3.03
2022-10-09T17:04:13.386Z,4.35
2022-10-09T17:06:41.682Z,3.65
2022-10-09T17:09:13.716Z,4.47
2022-10-09T17:11:44.560Z,3.45
2022-10-09T17:14:16.100Z,4.43
2022-10-09T17:16:43.987Z,3.08
2022-10-09T17:19:12.006Z,7.38
2022-10-09T17:21:39.681Z,5.18
2022-10-09T17:24:07.778Z,3.13
2022-10-09T17:26:36.451Z,3.08
2022-10-09T17:29:08.787Z,5.25
2022-10-09T17:31:36.544Z,4.30
2022-10-09T17:34:05.923Z,4.90
2022-10-09T17:36:37.229Z,4.38
2022-10-09T17:39:06.973Z,5.55
2022-10-09T17:41:34.878Z,2.83
2022-10-09T17:44:02.720Z,3.63
2022-10-09T17:46:32.259Z,4.43
2022-10-09T17:49:00.362Z,4.20
2022-10-09T17:51:30.004Z,6.63
2022-10-09T17:53:59.451Z,2.85
2022-10-09T17:56:27.270Z,5.82
2022-10-09T17:58:56.012Z,6.13
2022-10-09T18:01:24.336Z,3.97
2022-10-09T18:03:53.368Z,5.57
2022-10-09T18:06:23.758Z,4.05
2022-10-09T18:08:54.280Z,3.78
2022-10-09T18:11:24.469Z,5.25
2022-10-09T18:13:52.819Z,2.88
2022-10-09T18:16:24.091Z,2.72
2022-10-09T18:18:53.108Z,6.47
2022-10-09T18:21:20.788Z,3.30
2022-10-09T18:23:48.909Z,3.67
2022-10-09T18:26:19.360Z,6.55
2022-10-09T18:28:48.676Z,5.20
2022-10-09T18:31:20.810Z,5.13
2022-10-09T18:33:48.657Z,26.95
2022-10-09T18:36:20.015Z,5.80
2022-10-09T18:38:49.356Z,4.97
2022-10-09T18:41:17.625Z,5.47
2022-10-09T18:43:45.378Z,6.45
2022-10-09T18:46:13.596Z,4.82
2022-10-09T18:48:42.309Z,3.90
2022-10-09T18:51:14.379Z,4.47
2022-10-09T18:53:46.465Z,2.42
2022-10-09T18:56:14.809Z,4.47
2022-10-09T18:58:42.902Z,3.35
2022-10-09T19:01:10.603Z,4.65
2022-10-09T19:03:38.213Z,7.05
2022-10-09T19:06:06.488Z,5.25
2022-10-09T19:08:35.075Z,11.02
2022-10-09T19:11:07.091Z,6.10
2022-10-09T19:13:34.664Z,23.42
2022-10-09T19:16:04.552Z,27.60
2022-10-09T19:18:34.548Z,36.70
2022-10-09T19:21:03.840Z,43.60
2022-10-09T19:23:31.527Z,10.57
2022-10-09T19:26:00.300Z,15.90
2022-10-09T19:28:32.823Z,20.30
2022-10-09T19:33:30.606Z,24.63
2022-10-09T19:35:58.701Z,11.63
2022-10-09T19:38:27.501Z,8.07
2022-10-09T19:40:55.450Z,11.45
2022-10-09T19:43:25.055Z,10.35
2022-10-09T19:46:03.418Z,22.38
2022-10-09T19:48:31.072Z,35.90
2022-10-09T19:51:00.903Z,27.17
2022-10-09T19:53:28.549Z,19.25
2022-10-09T19:55:56.131Z,25.35
2022-10-09T19:58:23.813Z,23.27
2022-10-09T20:00:51.543Z,18.23
2022-10-09T20:03:20.581Z,15.50
2022-10-09T20:05:48.295Z,15.57
2022-10-09T20:08:15.889Z,14.35
2022-10-09T20:10:43.532Z,16.17
2022-10-09T20:13:11.297Z,14.27
2022-10-09T20:15:42.702Z,18.23
2022-10-09T20:18:10.351Z,13.95
2022-10-09T20:20:39.422Z,11.95
2022-10-09T20:23:07.110Z,17.80
2022-10-09T20:25:34.733Z,13.23
2022-10-09T20:28:06.754Z,15.73
2022-10-09T20:30:34.610Z,52.78
2022-10-09T20:33:02.600Z,18.92
2022-10-09T20:35:30.420Z,22.27
2022-10-09T20:38:00.256Z,96.55
2022-10-09T20:40:27.870Z,46.13
2022-10-09T20:42:55.559Z,9.93
2022-10-09T20:45:23.128Z,14.50
2022-10-09T20:47:50.787Z,10.25
2022-10-09T20:50:18.617Z,7.72
2022-10-09T20:52:46.179Z,5.70
2022-10-09T20:55:15.166Z,7.95
2022-10-09T20:57:42.720Z,9.40
2022-10-09T21:00:11.671Z,7.93
2022-10-09T21:02:39.376Z,6.72
2022-10-09T21:05:08.208Z,9.75
2022-10-09T21:07:35.914Z,7.63
2022-10-09T21:10:03.643Z,6.28
2022-10-09T21:12:32.602Z,7.40
2022-10-09T21:15:00.223Z,11.60
2022-10-09T21:17:27.923Z,8.60
2022-10-09T21:19:56.445Z,8.52
2022-10-09T21:22:24.186Z,9.35
2022-10-09T21:24:52.184Z,8.57
2022-10-09T21:27:19.850Z,7.38
2022-10-09T21:29:49.183Z,8.25
2022-10-09T21:32:17.059Z,11.35
2022-10-09T21:34:47.105Z,7.63
2022-10-09T21:37:22.582Z,8.63
2022-10-09T21:39:50.308Z,6.45
2022-10-09T21:42:17.904Z,7.70
2022-10-09T21:44:49.952Z,7.13
2022-10-09T21:47:19.087Z,6.97
2022-10-09T21:49:46.684Z,27.58
2022-10-09T21:52:14.440Z,13.60
2022-10-09T21:54:42.022Z,6.28
2022-10-09T21:57:09.801Z,12.95
2022-10-09T21:59:37.437Z,11.52
2022-10-09T22:02:06.400Z,13.25
2022-10-09T22:04:34.140Z,6.63
2022-10-09T22:07:01.769Z,10.43
2022-10-09T22:09:29.576Z,9.23
2022-10-09T22:11:57.797Z,9.70
2022-10-09T22:14:25.350Z,6.68
2022-10-09T22:16:52.946Z,7.13
2022-10-09T22:19:21.883Z,8.05
2022-10-09T22:21:50.448Z,6.38
2022-10-09T22:24:18.060Z,6.25
2022-10-09T22:26:45.691Z,7.70
2022-10-09T22:29:13.290Z,6.80
2022-10-09T22:31:40.904Z,6.07
2022-10-09T22:34:08.495Z,5.55
2022-10-09T22:36:37.480Z,6.32
2022-10-09T22:39:07.120Z,6.20
2022-10-09T22:41:36.052Z,4.82
2022-10-09T22:44:06.085Z,11.73
2022-10-09T22:46:36.563Z,9.80
2022-10-09T22:49:05.802Z,7.43
2022-10-09T22:51:33.433Z,6.57
2022-10-09T22:54:02.716Z,7.90
2022-10-09T22:56:34.873Z,4.82
2022-10-09T22:59:02.980Z,6.72
2022-10-09T23:01:34.588Z,7.60
2022-10-09T23:04:04.718Z,7.70
2022-10-09T23:06:32.350Z,7.53
2022-10-09T23:09:01.293Z,5.35
2022-10-09T23:11:30.238Z,6.22
2022-10-09T23:13:59.196Z,7.35
2022-10-09T23:16:28.508Z,6.70
2022-10-09T23:18:58.023Z,8.02
2022-10-09T23:21:25.983Z,8.52
2022-10-09T23:23:54.268Z,7.25
2022-10-09T23:26:26.229Z,5.60
2022-10-09T23:28:56.503Z,7.07
2022-10-09T23:31:25.517Z,8.82
2022-10-09T23:33:53.208Z,6.95
2022-10-09T23:36:23.397Z,7.93
2022-10-09T23:38:51.652Z,6.65
2022-10-09T23:41:21.125Z,6.57
2022-10-09T23:43:49.326Z,7.75
2022-10-09T23:46:20.703Z,8.80
2022-10-09T23:48:48.546Z,8.77
2022-10-09T23:51:17.224Z,8.30
2022-10-09T23:53:45.335Z,7.57
2022-10-09T23:56:16.724Z,12.45
2022-10-09T23:58:44.389Z,8.75
